AirNav   Duncan Aviation - Near you to keep you flying
 
 953 users online  

69CO Porter Memorial Hospital Heliport
Denver, Colorado, USA

GOING TO DENVER?


FAA INFORMATION EFFECTIVE 08 SEPTEMBER 2022

Location

FAA Identifier: 69CO
Lat/Long: 39-40-15.8200N 104-58-34.3400W
39-40.263667N 104-58.572333W
39.6710611,-104.9762056
(estimated)
Elevation: 5349 ft. / 1630 m (estimated)
Variation: 11E (1985)
Time zone: UTC -6 (UTC -7 during Standard Time)
Zip code: 80210

Heliport Operations

Heliport use: Private use, MEDICAL USE.
Activation date: 10/1985
Control tower: no
ARTCC: DENVER CENTER
FSS: DENVER FLIGHT SERVICE STATION
Attendance: CONTINUOUS
Wind indicator: lighted
Segmented circle: no
Beacon: white-green (lighted land airport)
Operates sunset to sunrise.

Heliport Communications

UNICOM: 123.05
WX ASOS at APA (8 nm SE): PHONE 720-873-2799
WX AWOS-3 at BJC (16 nm NW): PHONE 720-887-8067
WX ASOS at DEN (18 nm NE): PHONE 303-342-1920

Nearby radio navigation aids

VOR radial/distance  VOR name  Freq  Var
BJCr142/16.3JEFFCO VOR/DME115.4011E
FQFr255/16.4FALCON VORTAC116.3011E
DENr232/16.8DENVER VOR/DME117.9008E
DVVr222/21.1MILE HIGH VORTAC114.7008E

Heliport Services

Runway Information

Helipad H1

Dimensions: 87 x 71 ft. / 27 x 22 m
Surface: concrete, in good condition
Runway edge lights: non-standard
Runway edge markings: 20' - 30' TREES 40' WEST; 60' BLDG 10' SW.
Latitude: 39-40.263667N
Longitude: 104-58.572333W
Elevation: 5349.0 ft.
Traffic pattern: leftleft
Markings: NSTD, in good condition

Heliport Ownership and Management from official FAA records

Ownership: Privately-owned
Owner: PORTER MEMORIAL HOSPITAL
2525 S. DOWNING STREET
DENVER, CO 80210
Phone 303-778-5800
Manager: RICK WALL
2525 S. DOWNING STREET
DENVER, CO 80210
Phone 303-778-5800
ADDITIONAL CTC: STEVEN WEAVER; STEVENWEAVER@CENTURA.ORG

Additional Remarks

FOR CD CTC DENVER APCH AT 303-342-1916.

Instrument Procedures

There are no published instrument procedures at 69CO.

Some nearby airports with instrument procedures:

KAPA - Centennial Airport (8 nm SE)
KBKF - Buckley Space Force Base (11 nm E)
KBJC - Rocky Mountain Metro Airport (16 nm NW)
KDEN - Denver International Airport (18 nm NE)
KEIK - Erie Municipal Airport (21 nm N)
 
Loc | Ops | Rwys | IFR | FBO | Links
Com | Nav | Svcs | Stats | Notes

AirBoss

 
Area around 69CO (Porter Memorial Hospital Heliport)
 
Road maps at: MapQuest Bing Google
 
Aerial photo
No photo
 
Sectional chart

 
Airport distance calculator
Flying to Porter Memorial Hospital Heliport? Find the distance to fly.

From to 69CO

Sunrise and sunset
Times for 24-Sep-2022
 Local
(UTC-6)
 Zulu
(UTC)
Morning civil twilight06:2412:24
Sunrise06:5012:50
Sunset18:5300:53
Evening civil twilight19:2001:20

Current date and time
Zulu (UTC)  24-Sep-2022 23:43:37
Local (UTC-6)  24-Sep-2022 17:43:37
 
METAR
KAPA 
9nm SE 
242253Z 02006KT 10SM FEW100 26/M04 A3020 RMK AO2 SLP173 T02611044
KBKF 
11nm E 
242258Z 33005KT 10SM FEW100 27/M04 A3020 RMK AO2A SLP164 T02701038
KBJC 
16nm NW 
242245Z 10004KT 10SM SKC 27/M03 A3020
KDEN 
18nm NE 
242253Z 07006KT 10SM FEW100 26/M04 A3018 RMK AO2 SLP155 T02611044
TAF
KAPA 
9nm SE 
241740Z 2418/2518 VRB05KT P6SM FEW100 FEW220 FM242200 08006KT P6SM FEW220 FM250700 01006KT P6SM FEW220 FM251100 19006KT P6SM SKC FM251700 04006KT P6SM SKC
KBKF 
11nm E 
241700Z 2417/2523 VRB06KT 9999 SKC 510023 QNH3021INS TX24/2422Z TN07/2512Z
KBJC 
16nm NW 
241740Z 2418/2518 VRB03KT P6SM SKC FM241900 07007KT P6SM SKC FM250500 35005KT P6SM SKC
KDEN 
18nm NE 
242032Z 2421/2524 01009KT P6SM FEW100 FEW220 FM242230 04010KT P6SM FEW100 FEW220 FM250000 09006KT P6SM FEW220 FM250600 01006KT P6SM FEW220 FM251000 20006KT P6SM SKC FM251700 02007KT P6SM SKC FM252000 07007KT P6SM FEW120
NOTAMs
Click for the latest NOTAMs
NOTAMs are issued by the DoD/FAA and will open in a separate window not controlled by AirNav.

 

 
 

Would you like to see your business listed on this page?

 If your business provides an interesting product or service to pilots, flight crews, aircraft, or users of the Porter Memorial Hospital Heliport, you should consider listing it here.  To start the listing process, click on the button below
 
Add a business
 

Other Pages about Porter Memorial Hospital Heliport

Update a link
 
Copyright © AirNav, LLC. All rights reserved. Privacy Policy  Contact